sensor_id;sensor_type;location;lat;lon;timestamp;P1;durP1;ratioP1;P2;durP2;ratioP2
69485;SDS011;56677;51.710;5.366;2024-03-23T05:58:33;3.97;;;1.42;;
69485;SDS011;56677;51.710;5.366;2024-03-23T06:00:58;3.27;;;1.70;;
69485;SDS011;56677;51.710;5.366;2024-03-23T06:03:24;4.00;;;1.83;;
69485;SDS011;56677;51.710;5.366;2024-03-23T06:05:49;3.00;;;1.88;;
69485;SDS011;56677;51.710;5.366;2024-03-23T06:08:14;5.43;;;1.80;;
69485;SDS011;56677;51.710;5.366;2024-03-23T06:10:39;4.33;;;2.37;;
69485;SDS011;56677;51.710;5.366;2024-03-23T06:13:04;4.57;;;2.05;;
69485;SDS011;56677;51.710;5.366;2024-03-23T06:15:29;5.00;;;1.43;;
69485;SDS011;56677;51.710;5.366;2024-03-23T06:17:54;4.70;;;1.98;;
69485;SDS011;56677;51.710;5.366;2024-03-23T06:20:19;4.35;;;1.60;;
69485;SDS011;56677;51.710;5.366;2024-03-23T06:22:45;4.68;;;2.08;;
69485;SDS011;56677;51.710;5.366;2024-03-23T06:25:10;4.85;;;1.73;;
69485;SDS011;56677;51.710;5.366;2024-03-23T06:27:35;3.23;;;1.77;;
69485;SDS011;56677;51.710;5.366;2024-03-23T06:30:00;3.50;;;1.60;;
69485;SDS011;56677;51.710;5.366;2024-03-23T06:32:25;5.10;;;1.70;;
69485;SDS011;56677;51.710;5.366;2024-03-23T06:34:50;3.55;;;1.60;;
69485;SDS011;56677;51.710;5.366;2024-03-23T06:37:15;5.80;;;1.60;;
69485;SDS011;56677;51.710;5.366;2024-03-23T06:39:40;5.47;;;1.77;;
69485;SDS011;56677;51.710;5.366;2024-03-23T06:42:06;4.75;;;1.58;;
69485;SDS011;56677;51.710;5.366;2024-03-23T06:44:31;4.10;;;1.50;;
69485;SDS011;56677;51.710;5.366;2024-03-23T06:46:56;5.80;;;1.50;;
69485;SDS011;56677;51.710;5.366;2024-03-23T06:49:22;4.70;;;1.40;;
69485;SDS011;56677;51.710;5.366;2024-03-23T06:51:47;6.90;;;1.30;;
69485;SDS011;56677;51.710;5.366;2024-03-23T06:54:12;4.03;;;1.50;;
69485;SDS011;56677;51.710;5.366;2024-03-23T06:56:37;5.40;;;1.63;;
69485;SDS011;56677;51.710;5.366;2024-03-23T06:59:03;5.43;;;1.63;;
69485;SDS011;56677;51.710;5.366;2024-03-23T07:01:28;5.13;;;1.80;;
69485;SDS011;56677;51.710;5.366;2024-03-23T07:03:53;3.83;;;1.80;;
69485;SDS011;56677;51.710;5.366;2024-03-23T07:06:18;5.80;;;1.95;;
69485;SDS011;56677;51.710;5.366;2024-03-23T07:08:43;6.70;;;1.92;;
69485;SDS011;56677;51.710;5.366;2024-03-23T07:11:08;4.85;;;1.63;;
69485;SDS011;56677;51.710;5.366;2024-03-23T07:13:33;5.85;;;1.92;;
69485;SDS011;56677;51.710;5.366;2024-03-23T07:15:58;4.85;;;1.70;;
69485;SDS011;56677;51.710;5.366;2024-03-23T07:18:24;7.88;;;2.05;;
69485;SDS011;56677;51.710;5.366;2024-03-23T07:20:55;8.05;;;1.60;;
69485;SDS011;56677;51.710;5.366;2024-03-23T07:23:21;6.93;;;1.77;;
69485;SDS011;56677;51.710;5.366;2024-03-23T07:25:55;5.60;;;1.63;;
69485;SDS011;56677;51.710;5.366;2024-03-23T07:28:20;8.70;;;1.80;;
69485;SDS011;56677;51.710;5.366;2024-03-23T07:30:45;8.65;;;1.75;;
69485;SDS011;56677;51.710;5.366;2024-03-23T07:33:11;8.25;;;1.70;;
69485;SDS011;56677;51.710;5.366;2024-03-23T07:35:36;5.05;;;1.30;;
69485;SDS011;56677;51.710;5.366;2024-03-23T07:38:01;8.68;;;1.80;;
69485;SDS011;56677;51.710;5.366;2024-03-23T07:40:26;5.22;;;1.70;;
69485;SDS011;56677;51.710;5.366;2024-03-23T07:42:51;10.07;;;2.07;;
69485;SDS011;56677;51.710;5.366;2024-03-23T07:45:16;6.57;;;1.48;;
69485;SDS011;56677;51.710;5.366;2024-03-23T07:47:41;7.88;;;1.55;;
69485;SDS011;56677;51.710;5.366;2024-03-23T07:50:06;5.88;;;1.40;;
69485;SDS011;56677;51.710;5.366;2024-03-23T07:52:32;4.10;;;1.23;;
69485;SDS011;56677;51.710;5.366;2024-03-23T07:54:57;5.25;;;1.67;;
69485;SDS011;56677;51.710;5.366;2024-03-23T07:57:22;5.30;;;1.42;;
69485;SDS011;56677;51.710;5.366;2024-03-23T07:59:47;7.15;;;1.63;;
69485;SDS011;56677;51.710;5.366;2024-03-23T08:02:12;3.05;;;1.50;;
69485;SDS011;56677;51.710;5.366;2024-03-23T08:04:37;7.65;;;1.48;;
69485;SDS011;56677;51.710;5.366;2024-03-23T08:07:02;4.93;;;1.50;;
69485;SDS011;56677;51.710;5.366;2024-03-23T08:09:27;4.97;;;1.50;;
69485;SDS011;56677;51.710;5.366;2024-03-23T08:11:52;11.40;;;2.20;;
69485;SDS011;56677;51.710;5.366;2024-03-23T08:14:18;11.32;;;2.13;;
69485;SDS011;56677;51.710;5.366;2024-03-23T08:16:43;5.82;;;1.90;;
69485;SDS011;56677;51.710;5.366;2024-03-23T08:19:08;6.60;;;1.83;;
69485;SDS011;56677;51.710;5.366;2024-03-23T08:21:33;6.70;;;1.93;;
69485;SDS011;56677;51.710;5.366;2024-03-23T08:23:58;5.85;;;1.85;;
69485;SDS011;56677;51.710;5.366;2024-03-23T08:26:23;7.00;;;2.13;;
69485;SDS011;56677;51.710;5.366;2024-03-23T08:28:48;9.63;;;2.58;;
69485;SDS011;56677;51.710;5.366;2024-03-23T08:31:13;11.05;;;2.42;;
69485;SDS011;56677;51.710;5.366;2024-03-23T08:33:39;12.97;;;1.90;;
69485;SDS011;56677;51.710;5.366;2024-03-23T08:36:08;5.90;;;1.80;;
69485;SDS011;56677;51.710;5.366;2024-03-23T08:38:33;8.80;;;1.80;;
69485;SDS011;56677;51.710;5.366;2024-03-23T08:43:23;4.82;;;1.55;;
69485;SDS011;56677;51.710;5.366;2024-03-23T08:45:49;7.23;;;1.70;;
69485;SDS011;56677;51.710;5.366;2024-03-23T08:48:14;12.07;;;2.20;;
69485;SDS011;56677;51.710;5.366;2024-03-23T08:50:39;6.13;;;1.70;;
69485;SDS011;56677;51.710;5.366;2024-03-23T08:53:04;5.50;;;1.35;;
69485;SDS011;56677;51.710;5.366;2024-03-23T08:55:29;9.40;;;1.60;;
69485;SDS011;56677;51.710;5.366;2024-03-23T08:57:54;4.40;;;1.40;;
69485;SDS011;56677;51.710;5.366;2024-03-23T09:00:19;8.27;;;1.88;;
69485;SDS011;56677;51.710;5.366;2024-03-23T09:02:47;6.47;;;1.50;;
69485;SDS011;56677;51.710;5.366;2024-03-23T09:05:12;13.95;;;1.85;;
69485;SDS011;56677;51.710;5.366;2024-03-23T09:07:37;5.55;;;1.38;;
69485;SDS011;56677;51.710;5.366;2024-03-23T09:10:02;7.57;;;1.70;;
69485;SDS011;56677;51.710;5.366;2024-03-23T09:12:27;4.97;;;1.57;;
69485;SDS011;56677;51.710;5.366;2024-03-23T09:14:52;7.00;;;1.80;;
69485;SDS011;56677;51.710;5.366;2024-03-23T09:17:18;6.40;;;1.67;;
69485;SDS011;56677;51.710;5.366;2024-03-23T09:19:43;6.60;;;1.42;;
69485;SDS011;56677;51.710;5.366;2024-03-23T09:22:08;4.13;;;1.40;;
69485;SDS011;56677;51.710;5.366;2024-03-23T09:24:33;7.87;;;1.57;;
69485;SDS011;56677;51.710;5.366;2024-03-23T09:26:58;5.05;;;1.55;;
69485;SDS011;56677;51.710;5.366;2024-03-23T09:29:23;5.38;;;1.40;;
69485;SDS011;56677;51.710;5.366;2024-03-23T09:31:48;4.28;;;1.20;;
69485;SDS011;56677;51.710;5.366;2024-03-23T09:34:13;5.50;;;1.38;;
69485;SDS011;56677;51.710;5.366;2024-03-23T09:36:38;4.75;;;1.50;;
69485;SDS011;56677;51.710;5.366;2024-03-23T09:39:04;5.03;;;1.70;;
69485;SDS011;56677;51.710;5.366;2024-03-23T09:41:29;8.77;;;1.88;;
69485;SDS011;56677;51.710;5.366;2024-03-23T09:43:54;7.00;;;1.65;;
69485;SDS011;56677;51.710;5.366;2024-03-23T09:46:19;6.63;;;1.90;;
69485;SDS011;56677;51.710;5.366;2024-03-23T09:48:45;4.22;;;1.25;;
69485;SDS011;56677;51.710;5.366;2024-03-23T09:51:11;9.57;;;1.50;;
69485;SDS011;56677;51.710;5.366;2024-03-23T09:53:36;5.60;;;1.50;;
69485;SDS011;56677;51.710;5.366;2024-03-23T09:56:02;5.03;;;1.50;;
69485;SDS011;56677;51.710;5.366;2024-03-23T09:58:27;6.53;;;1.60;;
69485;SDS011;56677;51.710;5.366;2024-03-23T10:00:52;5.72;;;1.63;;
69485;SDS011;56677;51.710;5.366;2024-03-23T10:03:17;5.65;;;1.40;;
69485;SDS011;56677;51.710;5.366;2024-03-23T10:05:43;5.72;;;1.67;;
69485;SDS011;56677;51.710;5.366;2024-03-23T10:10:39;4.80;;;1.40;;
69485;SDS011;56677;51.710;5.366;2024-03-23T10:13:04;7.00;;;1.83;;
69485;SDS011;56677;51.710;5.366;2024-03-23T10:15:29;5.63;;;1.20;;
69485;SDS011;56677;51.710;5.366;2024-03-23T10:17:54;9.83;;;1.43;;
69485;SDS011;56677;51.710;5.366;2024-03-23T10:20:20;3.67;;;1.60;;
69485;SDS011;56677;51.710;5.366;2024-03-23T10:22:46;6.38;;;1.60;;
69485;SDS011;56677;51.710;5.366;2024-03-23T10:25:11;5.07;;;1.40;;
69485;SDS011;56677;51.710;5.366;2024-03-23T10:27:37;5.73;;;1.67;;
69485;SDS011;56677;51.710;5.366;2024-03-23T10:30:08;4.87;;;1.33;;
69485;SDS011;56677;51.710;5.366;2024-03-23T10:32:34;5.55;;;1.50;;
69485;SDS011;56677;51.710;5.366;2024-03-23T10:35:13;5.35;;;1.70;;
69485;SDS011;56677;51.710;5.366;2024-03-23T10:37:38;7.33;;;2.13;;
69485;SDS011;56677;51.710;5.366;2024-03-23T10:40:04;5.47;;;1.40;;
69485;SDS011;56677;51.710;5.366;2024-03-23T10:42:30;6.10;;;2.30;;
69485;SDS011;56677;51.710;5.366;2024-03-23T10:44:55;5.83;;;1.90;;
69485;SDS011;56677;51.710;5.366;2024-03-23T10:47:20;8.27;;;1.63;;
69485;SDS011;56677;51.710;5.366;2024-03-23T10:49:45;3.87;;;1.50;;
69485;SDS011;56677;51.710;5.366;2024-03-23T10:52:11;6.90;;;1.60;;
69485;SDS011;56677;51.710;5.366;2024-03-23T10:54:36;5.78;;;1.50;;
69485;SDS011;56677;51.710;5.366;2024-03-23T10:59:56;8.05;;;1.40;;
69485;SDS011;56677;51.710;5.366;2024-03-23T11:02:21;10.00;;;1.55;;
69485;SDS011;56677;51.710;5.366;2024-03-23T11:04:47;5.63;;;1.50;;
69485;SDS011;56677;51.710;5.366;2024-03-23T11:09:52;5.57;;;1.80;;
69485;SDS011;56677;51.710;5.366;2024-03-23T11:14:49;7.13;;;1.63;;
69485;SDS011;56677;51.710;5.366;2024-03-23T11:17:18;5.63;;;1.47;;
69485;SDS011;56677;51.710;5.366;2024-03-23T11:19:43;5.30;;;1.30;;
69485;SDS011;56677;51.710;5.366;2024-03-23T11:22:08;5.72;;;1.75;;
69485;SDS011;56677;51.710;5.366;2024-03-23T11:24:33;5.22;;;1.70;;
69485;SDS011;56677;51.710;5.366;2024-03-23T11:26:59;4.60;;;1.30;;
69485;SDS011;56677;51.710;5.366;2024-03-23T11:29:24;5.03;;;1.50;;
69485;SDS011;56677;51.710;5.366;2024-03-23T11:31:50;4.10;;;1.40;;
69485;SDS011;56677;51.710;5.366;2024-03-23T11:34:16;3.80;;;1.23;;
69485;SDS011;56677;51.710;5.366;2024-03-23T11:36:41;5.23;;;1.47;;
69485;SDS011;56677;51.710;5.366;2024-03-23T11:39:16;6.28;;;1.65;;
69485;SDS011;56677;51.710;5.366;2024-03-23T11:41:51;3.87;;;1.47;;
69485;SDS011;56677;51.710;5.366;2024-03-23T11:44:17;5.50;;;1.63;;
69485;SDS011;56677;51.710;5.366;2024-03-23T11:46:42;3.75;;;1.63;;
69485;SDS011;56677;51.710;5.366;2024-03-23T11:49:19;4.25;;;1.73;;
69485;SDS011;56677;51.710;5.366;2024-03-23T11:51:44;3.33;;;1.20;;
69485;SDS011;56677;51.710;5.366;2024-03-23T11:54:09;6.32;;;1.50;;
69485;SDS011;56677;51.710;5.366;2024-03-23T11:56:34;5.03;;;1.67;;
69485;SDS011;56677;51.710;5.366;2024-03-23T11:58:59;4.53;;;1.57;;
69485;SDS011;56677;51.710;5.366;2024-03-23T12:01:24;7.80;;;1.40;;
69485;SDS011;56677;51.710;5.366;2024-03-23T12:03:50;3.67;;;1.10;;
69485;SDS011;56677;51.710;5.366;2024-03-23T12:06:19;4.22;;;1.20;;
69485;SDS011;56677;51.710;5.366;2024-03-23T12:08:44;7.35;;;1.55;;
69485;SDS011;56677;51.710;5.366;2024-03-23T12:11:10;4.75;;;1.40;;
69485;SDS011;56677;51.710;5.366;2024-03-23T12:13:35;6.53;;;1.80;;
69485;SDS011;56677;51.710;5.366;2024-03-23T12:16:13;6.78;;;1.58;;
69485;SDS011;56677;51.710;5.366;2024-03-23T12:18:39;7.80;;;1.30;;
69485;SDS011;56677;51.710;5.366;2024-03-23T12:21:04;3.88;;;1.42;;
69485;SDS011;56677;51.710;5.366;2024-03-23T12:23:29;3.83;;;1.10;;
69485;SDS011;56677;51.710;5.366;2024-03-23T12:25:55;8.27;;;1.90;;
69485;SDS011;56677;51.710;5.366;2024-03-23T12:28:20;11.03;;;2.03;;
69485;SDS011;56677;51.710;5.366;2024-03-23T12:30:45;6.88;;;1.60;;
69485;SDS011;56677;51.710;5.366;2024-03-23T12:33:10;5.47;;;1.67;;
69485;SDS011;56677;51.710;5.366;2024-03-23T12:35:35;8.47;;;1.30;;
69485;SDS011;56677;51.710;5.366;2024-03-23T12:38:00;4.50;;;1.50;;
69485;SDS011;56677;51.710;5.366;2024-03-23T12:40:25;9.07;;;1.47;;
69485;SDS011;56677;51.710;5.366;2024-03-23T12:42:50;3.17;;;1.10;;
69485;SDS011;56677;51.710;5.366;2024-03-23T12:45:16;6.55;;;1.60;;
69485;SDS011;56677;51.710;5.366;2024-03-23T12:47:41;5.05;;;1.63;;
69485;SDS011;56677;51.710;5.366;2024-03-23T12:50:06;5.22;;;1.70;;
69485;SDS011;56677;51.710;5.366;2024-03-23T12:52:31;4.10;;;1.50;;
69485;SDS011;56677;51.710;5.366;2024-03-23T12:54:57;5.93;;;2.20;;
69485;SDS011;56677;51.710;5.366;2024-03-23T12:57:25;4.20;;;1.60;;
69485;SDS011;56677;51.710;5.366;2024-03-23T12:59:53;4.72;;;1.48;;
69485;SDS011;56677;51.710;5.366;2024-03-23T13:02:19;5.22;;;1.40;;
69485;SDS011;56677;51.710;5.366;2024-03-23T13:04:45;4.80;;;1.60;;
69485;SDS011;56677;51.710;5.366;2024-03-23T13:07:10;4.60;;;1.10;;
69485;SDS011;56677;51.710;5.366;2024-03-23T13:09:35;3.80;;;1.30;;
69485;SDS011;56677;51.710;5.366;2024-03-23T13:12:00;4.35;;;1.70;;
69485;SDS011;56677;51.710;5.366;2024-03-23T13:14:25;3.75;;;1.35;;
69485;SDS011;56677;51.710;5.366;2024-03-23T13:16:50;7.13;;;1.63;;
69485;SDS011;56677;51.710;5.366;2024-03-23T13:19:15;6.72;;;1.45;;
69485;SDS011;56677;51.710;5.366;2024-03-23T13:21:41;5.70;;;1.60;;
69485;SDS011;56677;51.710;5.366;2024-03-23T13:24:06;4.93;;;1.20;;
69485;SDS011;56677;51.710;5.366;2024-03-23T13:26:31;4.40;;;1.57;;
69485;SDS011;56677;51.710;5.366;2024-03-23T13:28:56;4.60;;;1.73;;
69485;SDS011;56677;51.710;5.366;2024-03-23T13:31:21;5.75;;;1.70;;
69485;SDS011;56677;51.710;5.366;2024-03-23T13:33:46;5.35;;;1.40;;
69485;SDS011;56677;51.710;5.366;2024-03-23T13:36:11;6.63;;;1.67;;
69485;SDS011;56677;51.710;5.366;2024-03-23T13:38:36;8.32;;;1.88;;
69485;SDS011;56677;51.710;5.366;2024-03-23T13:41:02;7.03;;;1.30;;
69485;SDS011;56677;51.710;5.366;2024-03-23T13:43:27;8.20;;;1.50;;
69485;SDS011;56677;51.710;5.366;2024-03-23T13:45:53;7.33;;;1.77;;
69485;SDS011;56677;51.710;5.366;2024-03-23T13:48:19;9.15;;;1.92;;
69485;SDS011;56677;51.710;5.366;2024-03-23T13:50:44;17.33;;;2.80;;
69485;SDS011;56677;51.710;5.366;2024-03-23T13:53:10;10.82;;;2.70;;
69485;SDS011;56677;51.710;5.366;2024-03-23T13:55:35;10.05;;;3.00;;
69485;SDS011;56677;51.710;5.366;2024-03-23T13:58:00;13.13;;;3.53;;
69485;SDS011;56677;51.710;5.366;2024-03-23T14:00:25;13.20;;;2.63;;
69485;SDS011;56677;51.710;5.366;2024-03-23T14:02:50;6.17;;;2.30;;
69485;SDS011;56677;51.710;5.366;2024-03-23T14:05:15;11.43;;;2.72;;
69485;SDS011;56677;51.710;5.366;2024-03-23T14:07:40;8.35;;;2.08;;
69485;SDS011;56677;51.710;5.366;2024-03-23T14:10:06;7.77;;;1.80;;
69485;SDS011;56677;51.710;5.366;2024-03-23T14:12:31;5.60;;;1.85;;
69485;SDS011;56677;51.710;5.366;2024-03-23T14:14:56;6.90;;;1.53;;
69485;SDS011;56677;51.710;5.366;2024-03-23T14:17:21;4.90;;;1.63;;
69485;SDS011;56677;51.710;5.366;2024-03-23T14:19:46;7.67;;;1.60;;
69485;SDS011;56677;51.710;5.366;2024-03-23T14:22:11;12.32;;;2.03;;
69485;SDS011;56677;51.710;5.366;2024-03-23T14:24:37;7.70;;;2.10;;
69485;SDS011;56677;51.710;5.366;2024-03-23T14:27:02;8.50;;;2.28;;
69485;SDS011;56677;51.710;5.366;2024-03-23T14:29:27;9.77;;;2.30;;
69485;SDS011;56677;51.710;5.366;2024-03-23T14:31:52;6.15;;;1.95;;
69485;SDS011;56677;51.710;5.366;2024-03-23T14:34:17;6.03;;;2.10;;
69485;SDS011;56677;51.710;5.366;2024-03-23T14:36:42;6.20;;;2.00;;
69485;SDS011;56677;51.710;5.366;2024-03-23T14:39:07;5.13;;;2.10;;
69485;SDS011;56677;51.710;5.366;2024-03-23T14:41:32;6.10;;;1.77;;
69485;SDS011;56677;51.710;5.366;2024-03-23T14:43:57;6.10;;;1.80;;
69485;SDS011;56677;51.710;5.366;2024-03-23T14:46:23;9.00;;;3.15;;
69485;SDS011;56677;51.710;5.366;2024-03-23T14:48:48;7.27;;;2.60;;
69485;SDS011;56677;51.710;5.366;2024-03-23T14:51:13;8.48;;;2.83;;
69485;SDS011;56677;51.710;5.366;2024-03-23T14:53:39;15.45;;;5.90;;
69485;SDS011;56677;51.710;5.366;2024-03-23T14:56:04;23.45;;;11.23;;
69485;SDS011;56677;51.710;5.366;2024-03-23T14:58:29;22.80;;;11.30;;
69485;SDS011;56677;51.710;5.366;2024-03-23T15:01:01;21.45;;;12.60;;
69485;SDS011;56677;51.710;5.366;2024-03-23T15:03:26;24.08;;;12.02;;
69485;SDS011;56677;51.710;5.366;2024-03-23T15:05:52;28.88;;;12.77;;
69485;SDS011;56677;51.710;5.366;2024-03-23T15:08:17;25.77;;;12.77;;
69485;SDS011;56677;51.710;5.366;2024-03-23T15:10:43;24.25;;;15.23;;
69485;SDS011;56677;51.710;5.366;2024-03-23T15:13:08;32.72;;;16.30;;
69485;SDS011;56677;51.710;5.366;2024-03-23T15:15:37;38.53;;;19.27;;
69485;SDS011;56677;51.710;5.366;2024-03-23T15:18:02;38.60;;;19.75;;
69485;SDS011;56677;51.710;5.366;2024-03-23T15:20:27;39.17;;;23.03;;
69485;SDS011;56677;51.710;5.366;2024-03-23T15:22:53;49.83;;;28.10;;
69485;SDS011;56677;51.710;5.366;2024-03-23T15:25:18;50.53;;;29.00;;
69485;SDS011;56677;51.710;5.366;2024-03-23T15:27:43;50.38;;;30.80;;
69485;SDS011;56677;51.710;5.366;2024-03-23T15:30:08;53.78;;;32.90;;
69485;SDS011;56677;51.710;5.366;2024-03-23T15:32:33;60.77;;;35.53;;
69485;SDS011;56677;51.710;5.366;2024-03-23T15:34:58;57.90;;;36.75;;
69485;SDS011;56677;51.710;5.366;2024-03-23T15:37:23;58.08;;;36.83;;
69485;SDS011;56677;51.710;5.366;2024-03-23T15:39:49;56.33;;;36.70;;
69485;SDS011;56677;51.710;5.366;2024-03-23T15:42:14;63.28;;;38.63;;
69485;SDS011;56677;51.710;5.366;2024-03-23T15:44:39;57.88;;;39.08;;
69485;SDS011;56677;51.710;5.366;2024-03-23T15:47:04;62.60;;;41.88;;
69485;SDS011;56677;51.710;5.366;2024-03-23T15:49:29;61.80;;;41.33;;
69485;SDS011;56677;51.710;5.366;2024-03-23T15:51:54;63.05;;;42.08;;
69485;SDS011;56677;51.710;5.366;2024-03-23T15:54:19;63.25;;;41.17;;
69485;SDS011;56677;51.710;5.366;2024-03-23T15:56:44;57.83;;;37.85;;
69485;SDS011;56677;51.710;5.366;2024-03-23T15:59:09;71.80;;;39.63;;
69485;SDS011;56677;51.710;5.366;2024-03-23T16:01:35;59.85;;;38.42;;
69485;SDS011;56677;51.710;5.366;2024-03-23T16:04:01;59.70;;;36.43;;
69485;SDS011;56677;51.710;5.366;2024-03-23T16:06:26;59.33;;;35.92;;
69485;SDS011;56677;51.710;5.366;2024-03-23T16:08:51;54.43;;;35.60;;
69485;SDS011;56677;51.710;5.366;2024-03-23T16:11:16;52.90;;;34.53;;
69485;SDS011;56677;51.710;5.366;2024-03-23T16:13:41;56.40;;;34.50;;
69485;SDS011;56677;51.710;5.366;2024-03-23T16:16:06;56.75;;;35.10;;
69485;SDS011;56677;51.710;5.366;2024-03-23T16:18:31;50.75;;;32.45;;
69485;SDS011;56677;51.710;5.366;2024-03-23T16:20:57;52.97;;;34.17;;
69485;SDS011;56677;51.710;5.366;2024-03-23T16:23:23;52.15;;;32.22;;
69485;SDS011;56677;51.710;5.366;2024-03-23T16:25:49;52.00;;;32.43;;
69485;SDS011;56677;51.710;5.366;2024-03-23T16:28:14;49.40;;;31.55;;
69485;SDS011;56677;51.710;5.366;2024-03-23T16:30:39;50.17;;;30.60;;
69485;SDS011;56677;51.710;5.366;2024-03-23T16:33:04;47.28;;;29.48;;
69485;SDS011;56677;51.710;5.366;2024-03-23T16:35:30;49.00;;;30.13;;
69485;SDS011;56677;51.710;5.366;2024-03-23T16:37:55;47.80;;;28.77;;
69485;SDS011;56677;51.710;5.366;2024-03-23T16:40:20;46.53;;;28.58;;
69485;SDS011;56677;51.710;5.366;2024-03-23T16:42:45;39.17;;;23.67;;
69485;SDS011;56677;51.710;5.366;2024-03-23T16:45:10;29.65;;;16.92;;
69485;SDS011;56677;51.710;5.366;2024-03-23T16:47:35;33.65;;;20.33;;
69485;SDS011;56677;51.710;5.366;2024-03-23T16:50:00;41.40;;;24.27;;
69485;SDS011;56677;51.710;5.366;2024-03-23T16:52:25;34.58;;;21.90;;
69485;SDS011;56677;51.710;5.366;2024-03-23T16:54:51;32.75;;;20.98;;
69485;SDS011;56677;51.710;5.366;2024-03-23T16:57:16;34.30;;;21.98;;
69485;SDS011;56677;51.710;5.366;2024-03-23T16:59:41;33.88;;;20.67;;
69485;SDS011;56677;51.710;5.366;2024-03-23T17:02:06;31.67;;;19.25;;
69485;SDS011;56677;51.710;5.366;2024-03-23T17:04:31;27.90;;;18.48;;
69485;SDS011;56677;51.710;5.366;2024-03-23T17:06:56;30.33;;;18.13;;
69485;SDS011;56677;51.710;5.366;2024-03-23T17:09:21;34.85;;;19.52;;
69485;SDS011;56677;51.710;5.366;2024-03-23T17:11:46;28.58;;;17.02;;
69485;SDS011;56677;51.710;5.366;2024-03-23T17:14:12;30.63;;;18.43;;
69485;SDS011;56677;51.710;5.366;2024-03-23T17:16:37;29.25;;;17.10;;
69485;SDS011;56677;51.710;5.366;2024-03-23T17:19:02;31.67;;;17.03;;
69485;SDS011;56677;51.710;5.366;2024-03-23T17:21:27;39.87;;;17.83;;
69485;SDS011;56677;51.710;5.366;2024-03-23T17:23:52;28.37;;;16.63;;
69485;SDS011;56677;51.710;5.366;2024-03-23T17:26:17;28.30;;;16.13;;
69485;SDS011;56677;51.710;5.366;2024-03-23T17:28:42;27.58;;;15.93;;
69485;SDS011;56677;51.710;5.366;2024-03-23T17:31:20;24.77;;;12.05;;
69485;SDS011;56677;51.710;5.366;2024-03-23T17:33:49;22.23;;;11.48;;
69485;SDS011;56677;51.710;5.366;2024-03-23T17:36:14;20.50;;;11.30;;
69485;SDS011;56677;51.710;5.366;2024-03-23T17:38:39;25.87;;;12.23;;
69485;SDS011;56677;51.710;5.366;2024-03-23T17:41:04;20.13;;;11.68;;
69485;SDS011;56677;51.710;5.366;2024-03-23T17:43:30;20.92;;;11.82;;
69485;SDS011;56677;51.710;5.366;2024-03-23T17:45:55;20.83;;;10.73;;
69485;SDS011;56677;51.710;5.366;2024-03-23T17:48:20;20.83;;;11.70;;
69485;SDS011;56677;51.710;5.366;2024-03-23T17:50:45;18.80;;;11.52;;
69485;SDS011;56677;51.710;5.366;2024-03-23T17:53:10;19.92;;;10.93;;
69485;SDS011;56677;51.710;5.366;2024-03-23T17:55:35;18.63;;;10.25;;
69485;SDS011;56677;51.710;5.366;2024-03-23T17:58:01;16.67;;;10.03;;
69485;SDS011;56677;51.710;5.366;2024-03-23T18:00:26;22.88;;;10.80;;
69485;SDS011;56677;51.710;5.366;2024-03-23T18:02:51;18.05;;;10.20;;
69485;SDS011;56677;51.710;5.366;2024-03-23T18:05:16;16.63;;;9.73;;
69485;SDS011;56677;51.710;5.366;2024-03-23T18:07:41;16.67;;;9.63;;
69485;SDS011;56677;51.710;5.366;2024-03-23T18:10:07;17.40;;;9.60;;
69485;SDS011;56677;51.710;5.366;2024-03-23T18:12:33;18.90;;;10.80;;
69485;SDS011;56677;51.710;5.366;2024-03-23T18:14:58;16.13;;;8.55;;
69485;SDS011;56677;51.710;5.366;2024-03-23T18:17:23;17.55;;;8.32;;
69485;SDS011;56677;51.710;5.366;2024-03-23T18:19:48;16.83;;;9.00;;
69485;SDS011;56677;51.710;5.366;2024-03-23T18:22:13;15.93;;;8.93;;
69485;SDS011;56677;51.710;5.366;2024-03-23T18:24:38;13.57;;;7.72;;
69485;SDS011;56677;51.710;5.366;2024-03-23T18:27:04;14.98;;;8.95;;
69485;SDS011;56677;51.710;5.366;2024-03-23T18:29:29;14.40;;;8.77;;
69485;SDS011;56677;51.710;5.366;2024-03-23T18:31:54;14.68;;;8.55;;
69485;SDS011;56677;51.710;5.366;2024-03-23T18:34:19;16.55;;;8.13;;
69485;SDS011;56677;51.710;5.366;2024-03-23T18:36:44;13.50;;;7.87;;
69485;SDS011;56677;51.710;5.366;2024-03-23T18:39:09;13.53;;;7.83;;
69485;SDS011;56677;51.710;5.366;2024-03-23T18:41:34;17.08;;;7.47;;
69485;SDS011;56677;51.710;5.366;2024-03-23T18:44:00;15.43;;;8.13;;
69485;SDS011;56677;51.710;5.366;2024-03-23T18:46:25;12.43;;;7.50;;
69485;SDS011;56677;51.710;5.366;2024-03-23T18:48:50;12.60;;;7.40;;
69485;SDS011;56677;51.710;5.366;2024-03-23T18:51:15;13.77;;;7.72;;
69485;SDS011;56677;51.710;5.366;2024-03-23T18:53:40;11.80;;;6.90;;
69485;SDS011;56677;51.710;5.366;2024-03-23T18:56:06;12.88;;;7.35;;
69485;SDS011;56677;51.710;5.366;2024-03-23T18:58:31;13.17;;;7.20;;
69485;SDS011;56677;51.710;5.366;2024-03-23T19:01:00;13.98;;;7.32;;
69485;SDS011;56677;51.710;5.366;2024-03-23T19:03:25;12.05;;;7.20;;
69485;SDS011;56677;51.710;5.366;2024-03-23T19:05:57;12.60;;;6.87;;
69485;SDS011;56677;51.710;5.366;2024-03-23T19:08:22;13.33;;;7.43;;
69485;SDS011;56677;51.710;5.366;2024-03-23T19:10:54;12.38;;;6.80;;
69485;SDS011;56677;51.710;5.366;2024-03-23T19:13:20;14.07;;;6.60;;
69485;SDS011;56677;51.710;5.366;2024-03-23T19:15:45;14.90;;;7.10;;
69485;SDS011;56677;51.710;5.366;2024-03-23T19:18:10;11.10;;;6.97;;
69485;SDS011;56677;51.710;5.366;2024-03-23T19:20:35;15.37;;;7.30;;
69485;SDS011;56677;51.710;5.366;2024-03-23T19:23:00;12.40;;;6.78;;
69485;SDS011;56677;51.710;5.366;2024-03-23T19:25:26;9.63;;;5.97;;
69485;SDS011;56677;51.710;5.366;2024-03-23T19:27:51;12.43;;;6.28;;
69485;SDS011;56677;51.710;5.366;2024-03-23T19:30:16;12.77;;;5.80;;
69485;SDS011;56677;51.710;5.366;2024-03-23T19:32:41;9.55;;;5.45;;
69485;SDS011;56677;51.710;5.366;2024-03-23T19:35:06;9.38;;;5.38;;
69485;SDS011;56677;51.710;5.366;2024-03-23T19:37:31;10.17;;;6.03;;
69485;SDS011;56677;51.710;5.366;2024-03-23T19:39:56;12.25;;;6.18;;
69485;SDS011;56677;51.710;5.366;2024-03-23T19:42:22;10.15;;;6.07;;
69485;SDS011;56677;51.710;5.366;2024-03-23T19:44:47;12.17;;;5.27;;
69485;SDS011;56677;51.710;5.366;2024-03-23T19:47:12;10.03;;;5.57;;
69485;SDS011;56677;51.710;5.366;2024-03-23T19:49:37;8.60;;;4.60;;
69485;SDS011;56677;51.710;5.366;2024-03-23T19:52:02;15.00;;;5.78;;
69485;SDS011;56677;51.710;5.366;2024-03-23T19:54:28;8.90;;;4.90;;
69485;SDS011;56677;51.710;5.366;2024-03-23T19:56:53;9.95;;;5.15;;
69485;SDS011;56677;51.710;5.366;2024-03-23T19:59:18;9.07;;;5.80;;
69485;SDS011;56677;51.710;5.366;2024-03-23T20:01:43;10.77;;;5.10;;
69485;SDS011;56677;51.710;5.366;2024-03-23T20:04:08;10.75;;;4.93;;
69485;SDS011;56677;51.710;5.366;2024-03-23T20:06:33;12.73;;;5.43;;
69485;SDS011;56677;51.710;5.366;2024-03-23T20:08:58;9.13;;;4.78;;
69485;SDS011;56677;51.710;5.366;2024-03-23T20:11:24;9.03;;;4.50;;
69485;SDS011;56677;51.710;5.366;2024-03-23T20:13:49;8.57;;;4.27;;
69485;SDS011;56677;51.710;5.366;2024-03-23T20:16:14;9.38;;;5.13;;
69485;SDS011;56677;51.710;5.366;2024-03-23T20:18:39;9.65;;;4.63;;
69485;SDS011;56677;51.710;5.366;2024-03-23T20:21:04;9.63;;;4.80;;
69485;SDS011;56677;51.710;5.366;2024-03-23T20:23:30;7.97;;;4.43;;
69485;SDS011;56677;51.710;5.366;2024-03-23T20:25:56;8.03;;;4.50;;
69485;SDS011;56677;51.710;5.366;2024-03-23T20:28:21;8.50;;;4.50;;
69485;SDS011;56677;51.710;5.366;2024-03-23T20:30:47;8.60;;;4.63;;
69485;SDS011;56677;51.710;5.366;2024-03-23T20:33:12;9.60;;;4.40;;
69485;SDS011;56677;51.710;5.366;2024-03-23T20:35:45;7.07;;;4.13;;
69485;SDS011;56677;51.710;5.366;2024-03-23T20:38:11;9.00;;;4.55;;
69485;SDS011;56677;51.710;5.366;2024-03-23T20:40:36;8.85;;;4.30;;